Time;durP1;ratioP1;P1;durP2;ratioP2;P2;SDS_P1;SDS_P2;PMS_P1;PMS_P2;Temp;Humidity;BMP_temperature;BMP_pressure;BME280_temperature;BME280_humidity;BME280_pressure;Samples;Min_cycle;Max_cycle;Signal;HPM_P1;HPM_P2
2023/03/28 00:01:37;;;;;;;13.02;1.27;;;1.90;99.90;;;;;;5030121;28;20410;-93
2023/03/28 00:04:03;;;;;;;9.80;1.27;;;1.80;99.90;;;;;;5033108;28;20415;-94
2023/03/28 00:06:30;;;;;;;8.30;0.70;;;1.70;99.90;;;;;;5032236;28;20425;-94
2023/03/28 00:08:56;;;;;;;11.35;1.00;;;1.80;99.90;;;;;;5032215;28;20429;-95
2023/03/28 00:11:22;;;;;;;11.50;1.50;;;1.60;99.90;;;;;;5030891;28;20425;-94
2023/03/28 00:13:59;;;;;;;10.50;0.98;;;1.70;99.90;;;;;;5031472;28;20408;-94
2023/03/28 00:16:33;;;;;;;13.75;1.10;;;1.70;99.90;;;;;;5032390;28;20455;-94
2023/03/28 00:19:05;;;;;;;11.52;1.00;;;1.80;99.90;;;;;;5029145;28;20406;-93
2023/03/28 00:21:40;;;;;;;12.27;1.10;;;1.80;99.90;;;;;;5032445;28;20511;-93
2023/03/28 00:24:09;;;;;;;11.75;1.00;;;1.70;99.90;;;;;;5030259;28;20432;-93
2023/03/28 00:26:36;;;;;;;9.85;0.93;;;1.70;99.90;;;;;;5031778;28;20418;-95
2023/03/28 00:29:05;;;;;;;9.63;0.60;;;1.80;99.90;;;;;;5031384;28;20705;-94
2023/03/28 00:31:33;;;;;;;8.63;1.10;;;1.70;99.90;;;;;;5029879;28;20939;-94
2023/03/28 00:33:59;;;;;;;9.95;0.88;;;1.70;99.90;;;;;;5032346;28;20406;-92
2023/03/28 00:36:28;;;;;;;9.57;1.40;;;1.70;99.90;;;;;;5029682;28;20899;-92
2023/03/28 00:38:54;;;;;;;10.55;1.10;;;1.60;99.90;;;;;;5032220;28;20445;-93
2023/03/28 00:41:22;;;;;;;11.57;1.10;;;1.70;99.90;;;;;;5028788;28;20492;-93
2023/03/28 00:43:51;;;;;;;11.85;1.23;;;1.60;99.90;;;;;;5032008;28;20406;-94
2023/03/28 00:46:23;;;;;;;9.40;1.08;;;1.70;99.90;;;;;;5031032;28;20462;-94
2023/03/28 00:48:53;;;;;;;13.80;1.30;;;1.60;99.90;;;;;;5030274;28;20437;-95
2023/03/28 00:51:26;;;;;;;10.60;1.73;;;1.40;99.90;;;;;;5031446;28;20401;-93
2023/03/28 00:53:56;;;;;;;19.10;3.67;;;1.50;99.90;;;;;;5031201;28;20397;-93
2023/03/28 00:56:24;;;;;;;17.77;3.50;;;1.50;99.90;;;;;;5031918;28;20401;-93
2023/03/28 00:58:51;;;;;;;15.07;2.65;;;1.50;99.90;;;;;;5028691;28;20437;-94
2023/03/28 01:01:18;;;;;;;13.35;1.75;;;1.50;99.90;;;;;;5031448;28;20830;-94
2023/03/28 01:03:55;;;;;;;9.70;1.25;;;1.40;99.90;;;;;;5030376;28;20437;-94
2023/03/28 01:06:23;;;;;;;12.10;1.77;;;1.40;99.90;;;;;;5028955;28;20405;-95
2023/03/28 01:08:49;;;;;;;10.80;1.13;;;1.40;99.90;;;;;;5031113;28;20531;-94
2023/03/28 01:11:16;;;;;;;10.20;1.30;;;1.20;99.90;;;;;;5028332;28;20532;-94
2023/03/28 01:13:49;;;;;;;10.85;0.88;;;1.20;99.90;;;;;;5031423;28;20412;-95
2023/03/28 01:16:17;;;;;;;10.98;1.02;;;1.30;99.90;;;;;;5029071;28;20785;-94
2023/03/28 01:18:50;;;;;;;10.93;0.85;;;1.10;99.90;;;;;;5030338;28;20495;-93
2023/03/28 01:21:38;;;;;;;11.93;1.33;;;1.20;99.90;;;;;;5031036;28;20401;-94
2023/03/28 01:24:28;;;;;;;12.85;1.23;;;1.00;99.90;;;;;;5030833;28;20471;-94
2023/03/28 01:27:12;;;;;;;9.27;1.00;;;0.90;99.90;;;;;;5031154;28;20401;-94
2023/03/28 01:29:47;;;;;;;13.00;1.10;;;0.90;99.90;;;;;;5029265;28;21014;-94
2023/03/28 01:32:45;;;;;;;9.18;0.75;;;0.80;99.90;;;;;;5029076;28;20406;-94
2023/03/28 01:35:32;;;;;;;12.82;0.85;;;0.80;99.90;;;;;;5029818;28;20417;-96
2023/03/28 01:38:07;;;;;;;11.82;1.25;;;0.90;99.90;;;;;;5028351;28;20424;-94
2023/03/28 01:41:05;;;;;;;10.10;1.20;;;0.70;99.90;;;;;;5030041;28;20496;-94
2023/03/28 01:43:55;;;;;;;11.23;1.00;;;0.70;99.90;;;;;;5030481;28;20398;-95
2023/03/28 01:46:29;;;;;;;10.88;1.75;;;0.60;99.90;;;;;;5027507;28;20452;-94
2023/03/28 01:49:25;;;;;;;13.00;2.40;;;0.60;99.90;;;;;;5031434;28;20429;-95
2023/03/28 01:52:16;;;;;;;11.20;3.17;;;0.60;99.90;;;;;;5029594;28;20835;-94
2023/03/28 01:55:04;;;;;;;11.65;4.05;;;0.60;99.90;;;;;;5035214;23;20439;-94
2023/03/28 01:57:41;;;;;;;15.43;3.80;;;0.60;99.90;;;;;;5008165;28;20408;-93
2023/03/28 02:00:28;;;;;;;13.60;3.13;;;0.60;99.90;;;;;;5009629;28;20763;-94
2023/03/28 02:02:57;;;;;;;14.82;4.63;;;0.50;99.90;;;;;;5008522;28;20460;-96
2023/03/28 02:05:26;;;;;;;12.00;3.72;;;0.50;99.90;;;;;;5008197;28;20406;-95
2023/03/28 02:07:53;;;;;;;14.57;3.23;;;0.30;99.90;;;;;;5009063;28;20510;-94
2023/03/28 02:10:24;;;;;;;15.60;3.30;;;0.50;99.90;;;;;;5008587;28;20635;-95
2023/03/28 02:12:55;;;;;;;12.35;2.08;;;0.90;99.90;;;;;;5008923;28;20501;-93
2023/03/28 02:15:24;;;;;;;16.98;2.67;;;0.50;99.90;;;;;;5008127;28;20410;-95
2023/03/28 02:17:57;;;;;;;12.90;2.22;;;0.40;99.90;;;;;;5008828;28;20940;-94
2023/03/28 02:20:27;;;;;;;15.65;1.88;;;0.50;99.90;;;;;;5008284;28;20403;-95
2023/03/28 02:23:08;;;;;;;12.98;2.30;;;0.50;99.90;;;;;;5007880;28;20399;-95
2023/03/28 02:25:35;;;;;;;14.50;2.00;;;0.30;99.90;;;;;;5008607;28;20718;-94
2023/03/28 02:28:05;;;;;;;14.65;2.13;;;0.30;99.90;;;;;;5007784;28;21264;-95
2023/03/28 02:30:32;;;;;;;12.60;1.83;;;0.30;99.90;;;;;;5008846;28;20403;-95
2023/03/28 02:32:59;;;;;;;13.88;1.88;;;0.00;99.90;;;;;;5008041;28;20766;-94
2023/03/28 02:35:37;;;;;;;17.35;2.30;;;0.30;99.90;;;;;;5008574;28;20410;-95
2023/03/28 02:38:14;;;;;;;15.90;2.40;;;0.40;99.90;;;;;;5008653;28;20824;-95
2023/03/28 02:41:02;;;;;;;11.90;1.55;;;0.40;99.90;;;;;;5010090;28;20415;-94
2023/03/28 02:44:02;;;;;;;13.27;1.60;;;0.00;99.90;;;;;;5008801;28;20504;-95
2023/03/28 02:46:45;;;;;;;12.23;1.67;;;0.20;99.90;;;;;;5007941;28;20477;-95
2023/03/28 02:49:25;;;;;;;14.43;2.17;;;0.30;99.90;;;;;;5007595;28;20443;-95
2023/03/28 02:52:23;;;;;;;14.93;1.67;;;0.20;99.90;;;;;;5008555;28;20425;-96
2023/03/28 02:55:02;;;;;;;12.27;1.73;;;0.20;99.90;;;;;;5007393;28;20602;-94
2023/03/28 02:57:35;;;;;;;13.27;2.05;;;0.20;99.90;;;;;;5007679;28;20707;-95
2023/03/28 03:00:11;;;;;;;14.63;1.95;;;0.20;99.90;;;;;;5008301;28;20399;-94
2023/03/28 03:02:49;;;;;;;13.80;1.90;;;0.20;99.90;;;;;;5007240;28;20414;-95
2023/03/28 03:05:15;;;;;;;10.80;2.20;;;0.10;99.90;;;;;;5008381;28;20473;-95
2023/03/28 03:07:41;;;;;;;12.38;2.72;;;0.10;99.90;;;;;;5007233;28;20426;-95
2023/03/28 03:10:09;;;;;;;13.63;2.15;;;0.60;99.90;;;;;;5008494;28;20414;-96
2023/03/28 03:12:35;;;;;;;14.27;2.15;;;0.20;99.90;;;;;;5008009;28;20415;-94
2023/03/28 03:15:03;;;;;;;14.90;2.20;;;0.30;99.90;;;;;;5009615;28;21093;-96
2023/03/28 03:17:29;;;;;;;11.50;2.20;;;0.40;99.90;;;;;;5007998;28;20758;-96
2023/03/28 03:19:55;;;;;;;13.43;2.30;;;0.40;99.90;;;;;;5007714;28;20426;-95
2023/03/28 03:22:21;;;;;;;14.40;2.60;;;0.20;99.90;;;;;;5008034;28;20419;-95
2023/03/28 03:24:49;;;;;;;13.43;2.57;;;0.30;99.90;;;;;;5006708;28;20437;-96
2023/03/28 03:27:17;;;;;;;12.27;2.38;;;0.50;99.90;;;;;;5008140;28;20407;-96
2023/03/28 03:29:43;;;;;;;12.40;2.58;;;0.50;99.90;;;;;;5012482;23;20444;-96
2023/03/28 03:32:09;;;;;;;12.90;1.90;;;0.30;99.90;;;;;;5006586;28;20459;-94
2023/03/28 03:34:35;;;;;;;11.43;1.92;;;0.30;99.90;;;;;;5026044;28;20408;-95
2023/03/28 03:37:03;;;;;;;12.05;1.83;;;0.30;99.90;;;;;;5023590;28;20401;-94
2023/03/28 03:39:29;;;;;;;16.20;3.15;;;0.40;99.90;;;;;;5025716;28;20415;-96
2023/03/28 03:41:55;;;;;;;11.50;2.72;;;0.30;99.90;;;;;;4992375;28;20939;-96
2023/03/28 03:44:21;;;;;;;14.00;3.85;;;0.30;99.90;;;;;;4990930;28;20409;-95
2023/03/28 03:46:47;;;;;;;13.32;3.20;;;0.30;99.90;;;;;;5025881;28;20925;-96
2023/03/28 03:49:13;;;;;;;19.27;3.97;;;0.30;99.90;;;;;;5022797;28;20515;-96
2023/03/28 03:51:39;;;;;;;14.30;3.73;;;0.20;99.90;;;;;;5025933;28;20438;-95
2023/03/28 03:54:05;;;;;;;13.50;3.63;;;0.40;99.90;;;;;;5022739;28;21571;-95
2023/03/28 03:56:33;;;;;;;14.13;3.03;;;0.30;99.90;;;;;;5025454;28;20522;-95
2023/03/28 03:58:59;;;;;;;14.07;3.30;;;0.40;99.90;;;;;;5024095;28;20475;-94
2023/03/28 04:01:28;;;;;;;14.68;3.58;;;0.30;99.90;;;;;;5024571;28;20412;-96
2023/03/28 04:03:55;;;;;;;15.63;3.37;;;0.40;99.90;;;;;;5025579;28;20484;-96
2023/03/28 04:06:21;;;;;;;12.50;1.90;;;0.40;99.90;;;;;;5023852;28;20416;-96
2023/03/28 04:08:47;;;;;;;13.98;3.00;;;0.40;99.90;;;;;;5025422;28;20490;-95
2023/03/28 04:11:13;;;;;;;13.00;2.58;;;0.50;99.90;;;;;;5022182;28;20405;-95
2023/03/28 04:13:39;;;;;;;15.80;2.42;;;0.50;99.90;;;;;;4992364;28;20551;-95
2023/03/28 04:16:05;;;;;;;13.85;2.45;;;0.70;99.90;;;;;;5023083;28;20416;-95
2023/03/28 04:18:36;;;;;;;10.98;1.88;;;0.70;99.90;;;;;;5024989;28;20428;-94
2023/03/28 04:21:07;;;;;;;14.23;1.75;;;0.70;99.90;;;;;;4991404;28;20412;-95
2023/03/28 04:23:37;;;;;;;11.40;1.98;;;0.80;99.90;;;;;;4991759;28;20416;-95
2023/03/28 04:26:03;;;;;;;14.15;3.47;;;0.90;99.90;;;;;;5024939;28;20463;-93
2023/03/28 04:28:30;;;;;;;14.02;2.90;;;1.00;99.90;;;;;;5021359;28;20433;-95
2023/03/28 04:30:59;;;;;;;11.70;2.03;;;1.10;99.90;;;;;;4992644;28;20413;-95
2023/03/28 04:33:29;;;;;;;15.32;3.25;;;1.20;99.90;;;;;;5021923;28;20488;-95
2023/03/28 04:36:00;;;;;;;12.80;1.90;;;1.40;99.90;;;;;;5008059;28;20408;-95
2023/03/28 04:38:30;;;;;;;13.13;2.00;;;1.20;99.90;;;;;;5023220;28;20415;-94
2023/03/28 04:40:59;;;;;;;15.98;2.20;;;1.30;99.90;;;;;;5022589;28;20428;-94
2023/03/28 04:43:32;;;;;;;12.38;2.30;;;1.30;99.90;;;;;;4991984;28;20415;-95
2023/03/28 04:46:00;;;;;;;11.95;1.88;;;1.30;99.90;;;;;;5021737;28;20819;-95
2023/03/28 04:48:26;;;;;;;10.83;1.70;;;1.40;99.90;;;;;;4991835;28;20931;-95
2023/03/28 04:50:53;;;;;;;14.63;1.85;;;1.40;99.90;;;;;;5021841;28;20780;-95
2023/03/28 04:53:22;;;;;;;12.13;2.03;;;1.40;99.90;;;;;;5024879;28;20861;-95
2023/03/28 04:55:51;;;;;;;11.10;2.17;;;1.40;99.90;;;;;;5023122;28;20496;-96
2023/03/28 04:58:19;;;;;;;15.25;2.72;;;1.50;99.90;;;;;;5023484;28;20420;-94
2023/03/28 05:00:45;;;;;;;16.85;3.15;;;2.00;99.90;;;;;;5024672;28;20412;-95
2023/03/28 05:03:19;;;;;;;14.35;3.47;;;1.50;99.90;;;;;;5021819;28;20876;-94
2023/03/28 05:05:46;;;;;;;16.65;3.80;;;1.60;99.90;;;;;;5024867;28;20425;-95
2023/03/28 05:08:14;;;;;;;14.38;3.13;;;1.60;99.90;;;;;;5023324;28;21010;-95
2023/03/28 05:10:39;;;;;;;18.75;2.10;;;1.60;99.90;;;;;;5025457;28;20420;-95
2023/03/28 05:13:05;;;;;;;11.43;2.13;;;1.50;99.90;;;;;;5021940;28;20436;-94
2023/03/28 05:15:33;;;;;;;16.73;2.13;;;1.60;99.90;;;;;;5023754;28;20416;-94
2023/03/28 05:18:02;;;;;;;13.88;2.05;;;1.70;99.90;;;;;;4992090;28;20450;-94
2023/03/28 05:20:29;;;;;;;14.63;2.00;;;1.70;99.90;;;;;;5022710;28;20429;-95
2023/03/28 05:22:56;;;;;;;15.68;2.45;;;1.70;99.90;;;;;;5023866;28;20429;-95
2023/03/28 05:25:22;;;;;;;16.95;2.35;;;2.00;99.90;;;;;;5021441;28;20491;-95
2023/03/28 05:27:50;;;;;;;14.98;2.45;;;1.70;99.90;;;;;;5024254;28;20408;-95
2023/03/28 05:30:17;;;;;;;17.73;2.90;;;1.60;99.90;;;;;;5021278;28;20409;-94
2023/03/28 05:32:43;;;;;;;16.77;3.47;;;1.60;99.90;;;;;;5007357;28;20462;-95
2023/03/28 05:35:10;;;;;;;19.33;3.58;;;1.60;99.90;;;;;;5022631;28;20500;-94
2023/03/28 05:37:36;;;;;;;18.77;5.07;;;1.50;99.90;;;;;;5005490;28;20471;-95
2023/03/28 05:40:06;;;;;;;20.83;4.28;;;1.40;99.90;;;;;;5023727;28;20490;-94
2023/03/28 05:42:33;;;;;;;16.35;3.25;;;1.40;99.90;;;;;;5021040;28;20478;-95
2023/03/28 05:44:59;;;;;;;11.18;2.55;;;1.30;99.90;;;;;;5023373;28;20437;-95
2023/03/28 05:47:27;;;;;;;15.23;3.35;;;1.40;99.90;;;;;;4988116;28;20437;-94
2023/03/28 05:49:53;;;;;;;13.93;3.20;;;1.30;99.90;;;;;;5023999;28;20439;-94
2023/03/28 05:52:18;;;;;;;13.30;2.33;;;1.20;99.90;;;;;;5020669;28;20492;-93
2023/03/28 05:54:44;;;;;;;13.15;2.47;;;1.00;99.90;;;;;;5022796;28;20413;-94
2023/03/28 05:57:10;;;;;;;12.60;3.30;;;1.10;99.90;;;;;;5023166;28;20419;-94
2023/03/28 05:59:39;;;;;;;16.83;3.72;;;1.40;99.90;;;;;;5021045;28;20695;-94
2023/03/28 06:02:13;;;;;;;9.98;2.75;;;1.00;99.90;;;;;;5023435;28;20409;-94
2023/03/28 06:04:38;;;;;;;11.57;2.40;;;1.00;99.90;;;;;;5020692;28;20420;-94
2023/03/28 06:07:05;;;;;;;16.33;2.70;;;1.00;99.90;;;;;;5023274;28;20460;-95
2023/03/28 06:09:31;;;;;;;11.63;2.40;;;1.00;99.90;;;;;;5021226;28;20483;-94
2023/03/28 06:12:01;;;;;;;16.23;2.85;;;1.00;99.90;;;;;;5022922;28;20884;-94
2023/03/28 06:14:27;;;;;;;11.65;2.55;;;1.00;99.90;;;;;;4990108;28;20428;-94
2023/03/28 06:16:53;;;;;;;12.85;3.17;;;1.30;99.90;;;;;;5021089;28;20409;-94
2023/03/28 06:19:19;;;;;;;15.43;3.10;;;1.30;99.90;;;;;;5022995;28;20483;-94
2023/03/28 06:21:45;;;;;;;11.95;2.95;;;1.00;99.90;;;;;;5019973;28;21023;-93
2023/03/28 06:24:11;;;;;;;10.20;2.65;;;1.10;99.90;;;;;;5022919;28;20828;-95
2023/03/28 06:26:39;;;;;;;12.45;2.90;;;1.40;99.90;;;;;;5020161;28;20444;-95
2023/03/28 06:29:14;;;;;;;12.75;2.40;;;1.30;99.90;;;;;;5022148;28;20448;-95
2023/03/28 06:31:40;;;;;;;12.00;2.70;;;1.60;99.90;;;;;;4989985;28;20419;-94
2023/03/28 06:34:06;;;;;;;13.48;2.60;;;1.70;99.90;;;;;;5020718;28;20416;-94
2023/03/28 06:36:32;;;;;;;10.98;2.25;;;1.70;99.90;;;;;;5022666;28;20471;-94
2023/03/28 06:39:00;;;;;;;12.95;2.67;;;1.90;99.90;;;;;;4991044;28;20419;-94
2023/03/28 06:41:31;;;;;;;11.03;2.30;;;1.90;99.90;;;;;;4990306;28;20519;-95
2023/03/28 06:43:59;;;;;;;11.03;2.27;;;1.90;99.90;;;;;;5019918;28;20504;-95
2023/03/28 06:46:25;;;;;;;11.43;2.10;;;2.20;99.90;;;;;;5022648;28;20469;-95
2023/03/28 06:48:51;;;;;;;11.23;1.63;;;2.40;99.90;;;;;;5019734;28;20436;-94
2023/03/28 06:51:16;;;;;;;9.52;1.65;;;2.80;99.90;;;;;;5021901;28;20416;-94
2023/03/28 06:54:02;;;;;;;6.72;1.10;;;2.80;99.90;;;;;;4989294;28;20425;-96
2023/03/28 06:56:32;;;;;;;9.85;1.00;;;3.20;99.90;;;;;;4986726;28;20875;-95
2023/03/28 06:59:28;;;;;;;;;;;;;;;;;;;;;
2023/03/28 07:02:13;;;;;;;6.30;0.93;;;3.80;99.90;;;;;;5003190;28;20411;-95
2023/03/28 07:04:38;;;;;;;5.70;0.55;;;4.00;99.90;;;;;;5022682;28;20405;-95
2023/03/28 07:07:22;;;;;;;6.78;0.70;;;4.10;99.90;;;;;;4988157;28;20421;-95
2023/03/28 07:09:53;;;;;;;8.63;1.10;;;4.20;99.90;;;;;;5019920;28;20460;-95
2023/03/28 07:12:38;;;;;;;7.78;0.85;;;4.10;99.90;;;;;;5022496;28;20815;-95
2023/03/28 07:15:07;;;;;;;7.73;0.60;;;4.20;99.90;;;;;;4986644;28;20500;-94
2023/03/28 07:17:32;;;;;;;7.00;0.73;;;4.40;99.90;;;;;;5028498;28;20950;-94
2023/03/28 07:20:04;;;;;;;7.33;0.80;;;4.40;99.90;;;;;;4986718;28;20441;-95
2023/03/28 07:22:32;;;;;;;6.20;0.60;;;4.20;99.90;;;;;;4990849;28;20416;-95
2023/03/28 07:25:00;;;;;;;6.50;0.80;;;4.30;99.90;;;;;;4987790;28;20413;-94
2023/03/28 07:31:25;;;;;;;7.50;0.75;;;4.30;99.90;;;;;;5266627;22;20455;-95
2023/03/28 07:33:56;;;;;;;6.82;0.68;;;4.70;99.90;;;;;;5025698;28;20411;-95
2023/03/28 07:36:33;;;;;;;6.85;0.52;;;4.80;99.90;;;;;;5152744;22;20454;-94
2023/03/28 07:39:27;;;;;;;6.07;0.60;;;5.00;99.90;;;;;;5245361;22;20458;-94
2023/03/28 07:41:56;;;;;;;7.50;0.80;;;5.10;99.90;;;;;;5073388;28;20920;-94
2023/03/28 07:45:14;;;;;;;6.13;0.63;;;5.20;99.90;;;;;;5150061;22;20436;-96
2023/03/28 07:47:56;;;;;;;3.97;0.37;;;5.40;99.90;;;;;;5078152;28;20410;-95
2023/03/28 07:50:24;;;;;;;8.80;0.67;;;5.90;99.90;;;;;;5078594;28;20478;-95
2023/03/28 07:52:59;;;;;;;7.10;0.63;;;5.50;99.90;;;;;;5068794;28;20405;-96
2023/03/28 07:55:42;;;;;;;8.00;0.60;;;5.40;99.90;;;;;;5069987;28;20406;-94
2023/03/28 07:58:29;;;;;;;5.38;0.50;;;5.50;99.90;;;;;;5072152;28;20733;-94
2023/03/28 08:00:55;;;;;;;5.97;1.00;;;5.50;99.90;;;;;;5049999;28;20756;-96
2023/03/28 08:03:22;;;;;;;7.15;0.80;;;5.60;99.90;;;;;;5080544;28;20406;-95
2023/03/28 08:05:50;;;;;;;4.97;0.70;;;5.90;99.90;;;;;;5067982;28;20401;-94
2023/03/28 08:08:20;;;;;;;5.50;0.63;;;6.00;99.90;;;;;;5071617;28;20977;-95
2023/03/28 08:10:49;;;;;;;6.28;0.60;;;6.10;99.90;;;;;;5071674;28;20394;-94
2023/03/28 08:13:16;;;;;;;5.28;0.60;;;6.40;99.90;;;;;;5068690;28;20444;-94
2023/03/28 08:15:57;;;;;;;;;;;;;;;;;;;;;
2023/03/28 08:18:55;;;;;;;7.20;0.82;;;6.60;97.80;;;;;;5093737;28;20424;-95
2023/03/28 08:21:30;;;;;;;4.53;0.60;;;6.70;97.40;;;;;;5081936;28;20426;-94
2023/03/28 08:23:59;;;;;;;5.63;0.50;;;6.80;95.10;;;;;;5071963;28;20425;-94
2023/03/28 08:26:28;;;;;;;5.93;0.65;;;6.80;94.20;;;;;;5076233;28;20406;-94
2023/03/28 08:31:59;;;;;;;4.22;0.30;;;6.90;90.70;;;;;;5124473;22;20430;-94
2023/03/28 08:34:24;;;;;;;5.53;0.60;;;7.20;89.00;;;;;;5015303;28;20398;-94
2023/03/28 08:36:50;;;;;;;4.43;0.60;;;7.00;86.70;;;;;;5022966;28;20500;-94
2023/03/28 08:39:19;;;;;;;3.67;0.40;;;6.80;79.20;;;;;;5023563;28;20935;-95
2023/03/28 08:42:04;;;;;;;2.75;0.20;;;7.00;71.60;;;;;;5017220;28;20422;-93
2023/03/28 08:44:46;;;;;;;2.13;0.20;;;6.90;69.20;;;;;;5014971;28;20483;-94
2023/03/28 08:47:19;;;;;;;5.97;0.80;;;6.90;74.90;;;;;;5014436;28;20463;-95
2023/03/28 08:50:15;;;;;;;3.78;0.20;;;7.30;73.00;;;;;;5014183;28;20441;-92
2023/03/28 08:52:42;;;;;;;3.13;0.30;;;7.10;73.20;;;;;;4990738;28;20441;-93
2023/03/28 08:55:56;;;;;;;3.55;0.30;;;7.20;69.00;;;;;;5017543;28;20402;-96
2023/03/28 08:59:15;;;;;;;4.28;0.20;;;7.30;67.60;;;;;;5379190;22;20436;-94
2023/03/28 09:01:42;;;;;;;3.55;0.30;;;7.20;64.10;;;;;;5026540;28;20502;-94
2023/03/28 09:04:21;;;;;;;3.83;0.28;;;8.00;60.40;;;;;;5018437;28;20501;-96
2023/03/28 09:07:36;;;;;;;4.22;0.20;;;7.70;61.90;;;;;;5020933;28;20393;-95
2023/03/28 09:14:06;;;;;;;2.58;0.20;;;8.20;57.30;;;;;;5010627;28;20436;-95
2023/03/28 09:20:19;;;;;;;2.73;0.27;;;8.50;56.30;;;;;;5039492;28;20792;-94
2023/03/28 09:23:17;;;;;;;2.15;0.20;;;8.50;54.90;;;;;;5023688;28;20397;-95
2023/03/28 09:26:01;;;;;;;2.60;0.20;;;8.60;55.80;;;;;;5014514;28;20405;-96
2023/03/28 09:29:14;;;;;;;2.60;0.17;;;8.90;57.40;;;;;;4987464;28;20437;-94
2023/03/28 09:31:48;;;;;;;1.83;0.20;;;8.70;53.60;;;;;;4955212;28;20465;-93
2023/03/28 09:34:27;;;;;;;2.25;0.30;;;8.60;55.10;;;;;;4954736;28;20414;-96
2023/03/28 09:37:27;;;;;;;2.60;0.20;;;8.80;54.80;;;;;;4958303;28;20406;-95
2023/03/28 09:43:05;;;;;;;3.10;0.20;;;9.00;52.50;;;;;;4969291;28;20789;-94
2023/03/28 09:45:40;;;;;;;5.00;0.20;;;8.90;54.20;;;;;;4956774;28;20415;-94
2023/03/28 09:48:39;;;;;;;3.43;0.30;;;8.50;53.40;;;;;;4958759;28;20988;-95
2023/03/28 09:51:27;;;;;;;2.78;0.50;;;8.90;54.80;;;;;;4957233;28;20430;-95
2023/03/28 09:53:56;;;;;;;3.70;0.50;;;8.90;55.80;;;;;;4955419;28;20410;-95
2023/03/28 09:56:50;;;;;;;3.22;0.40;;;9.00;57.90;;;;;;4954963;28;20406;-94
2023/03/28 09:59:28;;;;;;;2.87;0.50;;;9.00;57.50;;;;;;4975913;28;20516;-96
2023/03/28 10:01:55;;;;;;;3.47;0.43;;;9.00;54.20;;;;;;4990074;28;20405;-94
2023/03/28 10:04:26;;;;;;;2.25;0.47;;;9.00;54.70;;;;;;4994215;28;20409;-94
2023/03/28 10:07:12;;;;;;;4.72;0.60;;;9.20;56.20;;;;;;4991422;28;20409;-94
2023/03/28 10:09:55;;;;;;;4.28;0.52;;;9.40;54.10;;;;;;4981489;28;20494;-94
2023/03/28 10:12:31;;;;;;;4.40;0.50;;;9.20;54.70;;;;;;4990688;28;20417;-94
2023/03/28 10:14:57;;;;;;;3.40;0.82;;;9.30;55.90;;;;;;4990444;28;20405;-95
2023/03/28 10:17:28;;;;;;;3.20;0.60;;;9.90;55.50;;;;;;4993246;28;20405;-95
2023/03/28 10:20:22;;;;;;;3.50;0.82;;;9.70;54.40;;;;;;4989105;28;20440;-93
2023/03/28 10:22:51;;;;;;;3.33;0.40;;;10.00;53.90;;;;;;4988416;28;20448;-94
2023/03/28 10:25:41;;;;;;;6.05;0.80;;;10.10;54.90;;;;;;4991933;28;20435;-94
2023/03/28 10:28:15;;;;;;;5.50;1.40;;;10.00;55.50;;;;;;4990072;28;20998;-94
2023/03/28 10:30:41;;;;;;;4.95;1.23;;;10.10;55.50;;;;;;4990044;28;20911;-93
2023/03/28 10:33:16;;;;;;;4.43;0.98;;;10.20;57.50;;;;;;4994039;28;20435;-96
2023/03/28 10:35:47;;;;;;;3.80;0.80;;;10.00;54.50;;;;;;4990682;28;20443;-95
2023/03/28 10:38:18;;;;;;;3.10;0.65;;;9.80;54.60;;;;;;4989649;28;20484;-94
2023/03/28 10:41:00;;;;;;;3.55;0.65;;;9.90;55.10;;;;;;4989716;28;20424;-94
2023/03/28 10:43:52;;;;;;;5.32;0.98;;;9.60;53.70;;;;;;4989879;28;20855;-92
2023/03/28 10:46:35;;;;;;;4.78;1.00;;;9.70;57.80;;;;;;4987202;28;20445;-95
2023/03/28 10:49:03;;;;;;;3.78;0.77;;;9.80;58.10;;;;;;4990691;28;20468;-95
2023/03/28 10:52:16;;;;;;;5.38;0.75;;;10.20;58.40;;;;;;4996443;28;20424;-95
2023/03/28 10:55:06;;;;;;;7.05;1.10;;;10.10;56.00;;;;;;4991606;28;20408;-95
2023/03/28 10:58:25;;;;;;;3.73;0.90;;;10.20;57.00;;;;;;4995188;28;20413;-95
2023/03/28 11:01:16;;;;;;;4.65;1.10;;;10.00;55.00;;;;;;5010821;28;20504;-94
2023/03/28 11:07:11;;;;;;;5.57;0.95;;;9.90;59.60;;;;;;5012791;28;20419;-95
2023/03/28 11:10:17;;;;;;;5.95;1.20;;;9.80;55.70;;;;;;5016284;28;20448;-93
2023/03/28 11:13:24;;;;;;;4.53;1.02;;;9.80;56.70;;;;;;5024916;28;20429;-96
2023/03/28 11:16:08;;;;;;;4.75;1.13;;;9.90;55.80;;;;;;5015323;28;20419;-94
2023/03/28 11:19:01;;;;;;;5.93;1.23;;;10.00;57.20;;;;;;5011944;28;20837;-94
2023/03/28 11:22:05;;;;;;;4.90;1.10;;;9.70;57.40;;;;;;5011517;28;20417;-96
2023/03/28 11:30:46;;;;;;;4.93;1.33;;;10.00;55.60;;;;;;5261981;22;20435;-96
2023/03/28 11:33:42;;;;;;;3.80;1.20;;;10.00;54.60;;;;;;5070076;28;20443;-95
2023/03/28 11:36:24;;;;;;;7.05;1.60;;;10.20;56.80;;;;;;5075828;28;20409;-94
2023/03/28 11:39:04;;;;;;;4.93;1.50;;;10.40;55.20;;;;;;5090521;27;20420;-95
2023/03/28 11:41:33;;;;;;;6.40;1.75;;;10.30;54.00;;;;;;5087533;28;20435;-96
2023/03/28 11:44:27;;;;;;;3.47;1.20;;;10.40;54.30;;;;;;5078261;28;20397;-93
2023/03/28 11:47:30;;;;;;;5.30;1.15;;;10.50;54.40;;;;;;5078839;28;20423;-94
2023/03/28 11:50:13;;;;;;;5.55;1.15;;;10.80;52.70;;;;;;5082482;28;20794;-95
2023/03/28 11:53:21;;;;;;;5.03;1.13;;;11.00;52.10;;;;;;5089347;28;20559;-95
2023/03/28 11:55:51;;;;;;;3.85;1.00;;;11.40;51.80;;;;;;5140745;22;20420;-95
2023/03/28 11:58:26;;;;;;;3.42;1.17;;;11.00;51.40;;;;;;5022938;28;20402;-94
2023/03/28 12:01:11;;;;;;;3.75;1.20;;;11.40;49.50;;;;;;5019448;28;20843;-96
2023/03/28 12:03:43;;;;;;;4.57;0.98;;;11.60;48.40;;;;;;5022939;28;20508;-94
2023/03/28 12:06:51;;;;;;;;;;;;;;;;;;;;;
2023/03/28 12:10:03;;;;;;;3.38;0.95;;;12.40;48.20;;;;;;5031860;28;20441;-96
2023/03/28 12:12:54;;;;;;;4.05;1.30;;;12.70;47.10;;;;;;5023462;28;20417;-96
2023/03/28 12:15:26;;;;;;;4.10;1.10;;;12.60;44.80;;;;;;5017267;28;20413;-95
2023/03/28 12:17:59;;;;;;;6.13;1.30;;;12.50;46.70;;;;;;5017519;28;20745;-95
2023/03/28 12:20:38;;;;;;;4.65;1.50;;;12.50;47.00;;;;;;5019126;28;20420;-94
2023/03/28 12:23:21;;;;;;;5.55;1.33;;;12.40;47.30;;;;;;5016084;28;20890;-96
2023/03/28 12:26:02;;;;;;;3.63;1.10;;;12.20;47.90;;;;;;5014586;28;20401;-94
2023/03/28 12:28:47;;;;;;;4.50;1.30;;;12.00;47.70;;;;;;5020467;28;20429;-96
2023/03/28 12:31:21;;;;;;;4.77;1.53;;;11.90;47.50;;;;;;5012648;28;20469;-93
2023/03/28 12:34:15;;;;;;;4.20;1.52;;;12.10;49.80;;;;;;5020249;28;20437;-95
2023/03/28 12:37:10;;;;;;;5.68;1.55;;;12.40;47.50;;;;;;5019067;28;20401;-95
2023/03/28 12:39:39;;;;;;;5.03;1.43;;;12.40;47.00;;;;;;5017925;28;20513;-93
2023/03/28 12:42:11;;;;;;;4.85;1.60;;;12.30;46.90;;;;;;5020435;28;20836;-94
2023/03/28 12:44:52;;;;;;;5.30;1.70;;;12.20;46.00;;;;;;5013862;28;20463;-96
2023/03/28 12:48:01;;;;;;;5.22;1.45;;;12.10;49.20;;;;;;5025694;28;20433;-96
2023/03/28 12:50:32;;;;;;;4.78;1.60;;;11.90;47.40;;;;;;5021509;28;20405;-94
2023/03/28 12:53:02;;;;;;;4.63;1.20;;;12.00;47.50;;;;;;5027572;28;20405;-95
2023/03/28 12:55:30;;;;;;;4.50;1.55;;;11.70;46.90;;;;;;5015606;28;20425;-94
2023/03/28 12:58:20;;;;;;;5.90;1.70;;;11.70;47.90;;;;;;5024856;28;20451;-96
2023/03/28 13:01:12;;;;;;;5.05;1.73;;;11.30;47.70;;;;;;5012184;28;20428;-95
2023/03/28 13:04:18;;;;;;;4.93;1.70;;;11.30;49.50;;;;;;5026333;28;20471;-96
2023/03/28 13:06:52;;;;;;;2.75;1.30;;;11.40;48.10;;;;;;5018978;28;20475;-94
2023/03/28 13:10:17;;;;;;;4.50;1.35;;;11.40;48.80;;;;;;5014523;28;20437;-96
2023/03/28 13:12:53;;;;;;;4.23;1.40;;;11.30;48.70;;;;;;5027009;28;20510;-94
2023/03/28 13:15:30;;;;;;;4.63;1.83;;;11.20;47.30;;;;;;5018124;28;20440;-95
2023/03/28 13:18:21;;;;;;;4.93;1.70;;;11.20;48.90;;;;;;5023681;28;20833;-95
2023/03/28 13:20:52;;;;;;;5.47;1.60;;;11.10;48.10;;;;;;5012505;28;20405;-94
2023/03/28 13:23:27;;;;;;;7.47;2.30;;;11.70;50.30;;;;;;5016893;28;20508;-94
2023/03/28 13:26:05;;;;;;;4.95;1.70;;;11.80;49.40;;;;;;5014876;28;20417;-94
2023/03/28 13:28:42;;;;;;;7.13;1.70;;;11.90;48.50;;;;;;5013612;28;20437;-94
2023/03/28 13:31:20;;;;;;;5.18;2.30;;;12.20;49.00;;;;;;5019960;28;20413;-94
2023/03/28 13:33:48;;;;;;;5.00;1.87;;;11.90;49.10;;;;;;5017990;28;20889;-95
2023/03/28 13:36:48;;;;;;;5.68;2.20;;;11.90;47.80;;;;;;5015105;28;20441;-93
2023/03/28 13:39:26;;;;;;;6.50;1.95;;;11.70;48.00;;;;;;5015717;28;20413;-93
2023/03/28 13:41:54;;;;;;;5.15;1.70;;;11.60;47.40;;;;;;5020360;28;20436;-94
2023/03/28 13:44:43;;;;;;;4.97;1.90;;;11.60;48.50;;;;;;5018233;28;20409;-95
2023/03/28 13:47:26;;;;;;;4.35;1.30;;;11.50;48.90;;;;;;5015203;28;20445;-95
2023/03/28 13:50:25;;;;;;;4.07;1.50;;;11.20;49.70;;;;;;5022155;28;20440;-96
2023/03/28 13:52:51;;;;;;;4.35;1.50;;;10.80;49.50;;;;;;5013574;28;20405;-94
2023/03/28 13:55:23;;;;;;;6.23;1.50;;;10.70;49.90;;;;;;5014454;28;20422;-93
2023/03/28 13:58:00;;;;;;;4.70;1.48;;;11.10;52.00;;;;;;5014275;28;20397;-95
2023/03/28 14:00:27;;;;;;;5.85;1.60;;;10.70;50.00;;;;;;5016386;28;20416;-94
2023/03/28 14:03:03;;;;;;;5.45;1.40;;;10.80;50.40;;;;;;5017400;28;20843;-95
2023/03/28 14:05:31;;;;;;;5.47;1.70;;;10.80;50.50;;;;;;5018198;28;20456;-94